Time;durP1;ratioP1;P1;durP2;ratioP2;P2;SDS_P1;SDS_P2;PMS_P1;PMS_P2;Temp;Humidity;BMP_temperature;BMP_pressure;BME280_temperature;BME280_humidity;BME280_pressure;Samples;Min_cycle;Max_cycle;Signal;HPM_P1;HPM_P2
2021/08/23 08:27:23;;;;;;;11.32;4.97;;;21.00;99.90;;;;;;14895358;22;1409997;-57
2021/08/23 08:33:19;;;;;;;10.75;4.55;;;21.10;99.90;;;;;;14925142;22;20020;-59
2021/08/23 08:39:06;;;;;;;10.85;5.22;;;21.30;99.90;;;;;;14924042;22;20027;-60
2021/08/23 08:44:54;;;;;;;13.63;4.70;;;21.40;99.90;;;;;;14927281;22;20060;-59
2021/08/23 08:50:41;;;;;;;9.18;5.90;;;21.50;99.90;;;;;;14923225;22;20025;-60
2021/08/23 08:56:29;;;;;;;13.05;5.50;;;21.50;99.90;;;;;;14924310;22;20027;-60
2021/08/23 09:02:18;;;;;;;14.13;5.20;;;21.60;99.90;;;;;;14925493;22;20037;-59
2021/08/23 09:08:06;;;;;;;9.77;5.72;;;22.00;99.90;;;;;;14925317;22;20042;-60
2021/08/23 09:14:00;;;;;;;10.15;5.47;;;21.90;99.90;;;;;;14924124;22;21106;-60
2021/08/23 09:19:57;;;;;;;9.43;5.20;;;22.00;99.90;;;;;;14915954;22;20032;-60
2021/08/23 09:25:45;;;;;;;8.55;5.32;;;22.20;99.90;;;;;;14904897;22;20027;-62
2021/08/23 09:31:34;;;;;;;10.43;5.22;;;22.50;99.60;;;;;;14905995;22;20030;-60
2021/08/23 09:37:24;;;;;;;9.57;5.05;;;22.60;99.50;;;;;;14911099;22;20102;-60
2021/08/23 09:43:15;;;;;;;10.50;4.50;;;22.50;99.70;;;;;;14906864;22;20024;-58
2021/08/23 09:49:05;;;;;;;9.90;5.20;;;22.40;99.90;;;;;;14904864;22;20023;-57
2021/08/23 09:55:02;;;;;;;11.20;5.05;;;22.30;99.90;;;;;;14903062;22;20043;-59
2021/08/23 10:00:49;;;;;;;13.07;5.35;;;22.40;99.90;;;;;;14908283;22;20035;-59
2021/08/23 10:06:46;;;;;;;19.13;10.27;;;22.50;99.90;;;;;;14905578;22;20034;-58
2021/08/23 10:12:35;;;;;;;13.68;5.63;;;22.40;99.30;;;;;;14903726;22;20026;-58
2021/08/23 10:18:22;;;;;;;9.40;5.30;;;22.50;99.80;;;;;;14891995;22;20280;-61
2021/08/23 10:24:10;;;;;;;14.57;5.03;;;22.70;99.20;;;;;;14901646;22;20372;-62
2021/08/23 10:30:00;;;;;;;10.80;5.35;;;22.60;98.50;;;;;;14911712;22;20019;-62
2021/08/23 10:35:52;;;;;;;11.90;5.72;;;22.60;98.90;;;;;;14855542;22;20019;-61
2021/08/23 10:41:39;;;;;;;21.43;5.63;;;22.60;98.90;;;;;;14933377;22;20027;-71
2021/08/23 10:47:32;;;;;;;9.65;4.30;;;22.60;99.10;;;;;;14931958;22;20019;-61
2021/08/23 10:53:19;;;;;;;10.50;4.35;;;22.60;98.70;;;;;;14934156;22;20078;-60
2021/08/23 10:59:14;;;;;;;11.07;4.97;;;22.90;99.00;;;;;;14933747;22;20055;-61
2021/08/23 11:11:48;;;;;;;9.25;5.22;;;22.20;99.90;;;;;;14931876;22;20023;-63
2021/08/23 11:17:35;;;;;;;11.85;5.15;;;21.80;99.90;;;;;;14931592;22;20103;-62
2021/08/23 11:23:26;;;;;;;9.13;4.55;;;21.90;99.90;;;;;;14927020;22;20027;-62
2021/08/23 11:29:14;;;;;;;11.10;4.75;;;22.00;99.90;;;;;;14903561;22;20016;-62
2021/08/23 11:35:03;;;;;;;10.10;4.85;;;22.10;99.90;;;;;;14901246;22;20034;-62
2021/08/23 11:40:50;;;;;;;7.82;4.10;;;22.10;99.90;;;;;;14903046;22;20028;-63
2021/08/23 11:53:23;;;;;;;7.20;3.88;;;23.10;99.90;;;;;;14932542;22;20008;-62
2021/08/23 11:59:13;;;;;;;9.15;4.65;;;23.30;99.90;;;;;;14933047;22;20031;-62
2021/08/23 12:05:11;;;;;;;5.72;4.18;;;23.50;99.90;;;;;;14931652;22;20365;-62
2021/08/23 12:11:09;;;;;;;7.72;4.32;;;23.30;99.90;;;;;;14932340;22;20019;-62
2021/08/23 12:16:56;;;;;;;9.50;4.78;;;23.20;99.90;;;;;;14931006;22;20027;-66
2021/08/23 12:22:43;;;;;;;9.15;4.53;;;23.30;99.90;;;;;;14930318;22;20434;-62
2021/08/23 12:28:31;;;;;;;7.97;4.45;;;23.50;99.90;;;;;;14901994;22;20039;-62
2021/08/23 12:34:19;;;;;;;11.15;4.72;;;23.30;99.80;;;;;;14902646;22;20026;-62
2021/08/23 12:40:08;;;;;;;7.53;4.45;;;23.60;99.90;;;;;;14932862;22;20035;-61
2021/08/23 12:45:57;;;;;;;12.57;4.75;;;23.90;99.60;;;;;;14931886;22;20065;-62
2021/08/23 12:51:45;;;;;;;8.15;4.32;;;24.00;98.60;;;;;;14932649;22;20016;-61
2021/08/23 12:57:32;;;;;;;8.23;4.35;;;23.90;98.40;;;;;;14935961;22;20070;-61
2021/08/23 13:03:20;;;;;;;7.60;4.68;;;23.50;99.10;;;;;;14935616;22;20489;-61
2021/08/23 13:09:07;;;;;;;7.55;4.68;;;23.10;99.40;;;;;;14936362;22;20091;-61
2021/08/23 13:14:54;;;;;;;9.68;5.18;;;23.00;99.90;;;;;;14937160;22;20027;-61
2021/08/23 13:20:42;;;;;;;13.82;5.97;;;22.50;99.90;;;;;;14934760;22;20103;-61
2021/08/23 13:26:29;;;;;;;12.65;5.85;;;22.20;99.90;;;;;;14915627;22;20146;-62
2021/08/23 13:32:16;;;;;;;13.63;5.93;;;22.20;99.90;;;;;;14905580;22;20030;-62
2021/08/23 13:38:06;;;;;;;15.95;6.05;;;22.40;99.90;;;;;;14904471;22;20165;-62
2021/08/23 13:43:53;;;;;;;13.05;5.93;;;22.60;99.90;;;;;;14902868;22;20026;-62
2021/08/23 13:49:40;;;;;;;12.50;5.38;;;22.90;99.90;;;;;;14906320;22;20023;-64
2021/08/23 13:55:28;;;;;;;14.55;5.53;;;22.90;99.90;;;;;;14915977;22;20016;-63
2021/08/23 14:01:15;;;;;;;10.43;5.47;;;22.90;99.90;;;;;;14935822;22;20028;-63
2021/08/23 14:07:02;;;;;;;12.80;5.30;;;22.80;99.90;;;;;;14934983;22;20106;-63
2021/08/23 14:12:51;;;;;;;12.63;6.05;;;22.80;99.90;;;;;;14935817;22;20016;-64
2021/08/23 14:18:38;;;;;;;15.07;6.40;;;22.70;99.90;;;;;;14934248;22;20098;-64
2021/08/23 14:24:24;;;;;;;15.82;7.07;;;23.00;99.90;;;;;;14923081;22;20892;-63
2021/08/23 14:30:13;;;;;;;13.35;6.63;;;22.80;99.90;;;;;;14903145;22;20477;-62
2021/08/23 14:36:02;;;;;;;13.52;6.32;;;23.00;99.90;;;;;;14919062;22;20022;-63
2021/08/23 14:41:49;;;;;;;10.82;6.20;;;23.20;99.30;;;;;;14934030;22;20109;-63
2021/08/23 14:47:37;;;;;;;11.13;5.90;;;23.40;99.30;;;;;;14933858;22;20095;-63
2021/08/23 14:53:24;;;;;;;12.85;6.38;;;23.30;99.20;;;;;;14934173;22;20051;-63
2021/08/23 14:59:12;;;;;;;12.10;6.30;;;23.10;99.10;;;;;;14934218;22;20023;-63
2021/08/23 15:05:00;;;;;;;13.63;6.75;;;23.10;99.60;;;;;;14933123;22;20051;-63
2021/08/23 15:10:49;;;;;;;11.02;7.03;;;23.10;99.10;;;;;;14933397;22;20058;-63
2021/08/23 15:16:36;;;;;;;11.82;7.88;;;23.30;99.30;;;;;;14932496;22;20030;-63
2021/08/23 15:22:24;;;;;;;12.52;8.48;;;23.10;99.70;;;;;;14933254;22;20028;-63
2021/08/23 15:28:11;;;;;;;13.90;9.85;;;22.80;99.90;;;;;;14902035;22;20101;-62
2021/08/23 15:33:58;;;;;;;15.35;11.07;;;22.60;99.90;;;;;;14917155;22;20022;-62
2021/08/23 15:39:46;;;;;;;14.63;10.07;;;22.60;99.90;;;;;;14932731;22;20081;-62
2021/08/23 15:45:34;;;;;;;13.82;10.95;;;22.60;99.90;;;;;;14933653;22;20023;-62
2021/08/23 15:51:22;;;;;;;15.48;10.20;;;22.70;99.90;;;;;;14931998;22;20505;-63
2021/08/23 15:57:13;;;;;;;18.02;9.90;;;22.70;99.90;;;;;;14930948;22;20098;-63
2021/08/23 16:03:00;;;;;;;13.05;8.65;;;22.70;99.90;;;;;;14932094;22;20562;-63
2021/08/23 16:08:47;;;;;;;13.02;8.02;;;22.60;99.90;;;;;;14932738;22;20075;-62
2021/08/23 16:14:35;;;;;;;9.70;7.65;;;22.50;99.90;;;;;;14931770;22;20480;-62
2021/08/23 16:20:23;;;;;;;10.48;8.27;;;22.60;99.90;;;;;;14932479;22;20102;-63
2021/08/23 16:26:09;;;;;;;10.98;8.10;;;22.40;99.90;;;;;;14913987;22;20060;-62
2021/08/23 16:31:58;;;;;;;13.95;8.27;;;22.50;99.90;;;;;;14908927;22;20031;-63
2021/08/23 16:37:45;;;;;;;15.15;8.70;;;22.50;99.90;;;;;;14908761;22;20038;-63
2021/08/23 16:43:32;;;;;;;15.50;8.05;;;22.50;99.90;;;;;;14907928;22;20019;-62
2021/08/23 16:49:21;;;;;;;16.10;7.93;;;22.50;99.90;;;;;;14909833;22;20026;-62
2021/08/23 16:55:11;;;;;;;13.00;8.23;;;22.50;99.90;;;;;;14936004;22;20040;-67
2021/08/23 17:00:58;;;;;;;46.30;35.05;;;22.30;99.90;;;;;;14935831;22;20599;-59
2021/08/23 17:06:46;;;;;;;11.30;8.60;;;22.50;99.90;;;;;;14937396;22;20091;-60
2021/08/23 17:12:34;;;;;;;41.90;31.35;;;22.40;99.70;;;;;;14936153;22;20095;-60
2021/08/23 17:18:21;;;;;;;15.95;7.65;;;22.60;99.30;;;;;;14935248;22;20428;-60
2021/08/23 17:24:09;;;;;;;117.50;90.53;;;23.00;98.80;;;;;;14926522;22;20095;-63
2021/08/23 17:29:56;;;;;;;16.77;9.10;;;23.00;98.20;;;;;;14904857;22;20134;-61
2021/08/23 17:35:43;;;;;;;12.32;6.85;;;22.90;98.30;;;;;;14902605;22;20041;-60
2021/08/23 17:41:34;;;;;;;7.35;6.15;;;23.30;98.00;;;;;;14903911;22;20491;-60
2021/08/23 17:47:21;;;;;;;13.52;6.90;;;23.80;96.80;;;;;;14903703;22;20476;-59
2021/08/23 17:53:08;;;;;;;11.98;7.05;;;24.00;95.30;;;;;;14903353;22;20024;-61
2021/08/23 17:58:56;;;;;;;10.90;6.53;;;23.90;95.10;;;;;;14901295;22;20029;-60
2021/08/23 18:04:43;;;;;;;11.75;6.20;;;23.70;96.00;;;;;;14904647;22;20020;-60
2021/08/23 18:10:29;;;;;;;11.60;6.07;;;23.30;96.10;;;;;;14903414;22;20019;-60
2021/08/23 18:16:18;;;;;;;9.80;6.57;;;23.20;96.40;;;;;;14909899;22;20102;-57
2021/08/23 18:22:05;;;;;;;20.88;9.57;;;23.20;96.60;;;;;;14903218;22;20027;-59
2021/08/23 18:27:52;;;;;;;8.57;5.65;;;23.00;96.80;;;;;;14903307;22;20339;-59
2021/08/23 18:33:40;;;;;;;11.02;6.13;;;22.80;96.90;;;;;;14900720;22;20020;-58
2021/08/23 18:39:27;;;;;;;16.25;6.82;;;22.40;97.20;;;;;;14903249;22;20027;-60
2021/08/23 18:45:14;;;;;;;16.08;6.93;;;22.20;97.90;;;;;;14902816;22;20487;-60
2021/08/23 18:51:03;;;;;;;12.13;6.85;;;22.20;97.50;;;;;;14901566;22;20412;-60
2021/08/23 18:56:49;;;;;;;10.52;6.72;;;22.00;97.60;;;;;;14903818;22;20019;-59
2021/08/23 19:02:36;;;;;;;11.95;7.00;;;21.90;97.50;;;;;;14904574;22;20027;-59
2021/08/23 19:08:25;;;;;;;26.05;18.08;;;22.00;97.50;;;;;;14903870;22;20020;-62
2021/08/23 19:14:11;;;;;;;16.52;8.20;;;22.10;97.50;;;;;;14905405;22;20026;-62
2021/08/23 19:19:58;;;;;;;12.55;7.55;;;22.10;97.60;;;;;;14902276;22;20456;-62
2021/08/23 19:25:47;;;;;;;15.90;10.18;;;21.70;98.20;;;;;;14900327;22;20026;-69
2021/08/23 19:31:33;;;;;;;12.15;7.95;;;21.50;98.70;;;;;;14902222;22;20019;-63
2021/08/23 19:37:20;;;;;;;11.95;7.85;;;21.80;98.50;;;;;;14905025;22;20095;-65
2021/08/23 19:43:09;;;;;;;11.20;7.03;;;21.70;98.90;;;;;;14902167;22;20035;-62
2021/08/23 19:48:56;;;;;;;14.30;6.93;;;21.50;98.90;;;;;;14905496;22;20024;-62
2021/08/23 19:54:42;;;;;;;14.60;7.15;;;21.50;99.00;;;;;;14902490;22;20024;-62
2021/08/23 20:00:33;;;;;;;14.18;6.43;;;21.50;99.00;;;;;;14899909;22;20421;-63
2021/08/23 20:06:20;;;;;;;18.35;9.88;;;21.40;99.00;;;;;;14902155;22;20488;-63
2021/08/23 20:12:07;;;;;;;15.25;5.70;;;21.40;99.20;;;;;;14900979;22;20497;-63
2021/08/23 20:17:55;;;;;;;12.70;6.15;;;21.40;99.10;;;;;;14901438;22;20485;-63
2021/08/23 20:23:42;;;;;;;16.02;5.90;;;21.40;99.20;;;;;;14904060;22;20024;-62
2021/08/23 20:29:29;;;;;;;13.00;5.40;;;21.40;99.30;;;;;;14905034;22;20024;-63
2021/08/23 20:35:19;;;;;;;17.63;6.07;;;21.50;99.10;;;;;;14907347;22;20019;-63
2021/08/23 20:41:11;;;;;;;10.93;5.00;;;21.50;98.70;;;;;;14904303;22;20500;-63
2021/08/23 20:46:58;;;;;;;59.30;36.15;;;21.50;98.60;;;;;;14901605;22;20027;-64
2021/08/23 20:52:48;;;;;;;9.73;4.72;;;21.40;98.60;;;;;;14900198;22;20026;-61
2021/08/23 20:58:34;;;;;;;17.95;5.32;;;21.50;98.60;;;;;;14906571;22;20028;-62
2021/08/23 21:04:21;;;;;;;11.43;4.60;;;21.30;98.80;;;;;;14903068;22;20026;-60
